sensor_id;sensor_type;location;lat;lon;timestamp;P1;durP1;ratioP1;P2;durP2;ratioP2
16093;SDS011;8151;47.824;12.092;2022-08-07T00:02:10;8.73;;;6.67;;
16093;SDS011;8151;47.824;12.092;2022-08-07T00:05:00;6.53;;;5.93;;
16093;SDS011;8151;47.824;12.092;2022-08-07T00:07:31;7.07;;;5.53;;
16093;SDS011;8151;47.824;12.092;2022-08-07T00:10:06;5.90;;;5.30;;
16093;SDS011;8151;47.824;12.092;2022-08-07T00:12:55;5.67;;;5.07;;
16093;SDS011;8151;47.824;12.092;2022-08-07T00:15:28;6.57;;;5.97;;
16093;SDS011;8151;47.824;12.092;2022-08-07T00:18:12;5.97;;;5.30;;
16093;SDS011;8151;47.824;12.092;2022-08-07T00:20:47;6.20;;;4.80;;
16093;SDS011;8151;47.824;12.092;2022-08-07T00:23:17;5.87;;;5.27;;
16093;SDS011;8151;47.824;12.092;2022-08-07T00:25:47;8.07;;;5.53;;
16093;SDS011;8151;47.824;12.092;2022-08-07T00:28:26;9.27;;;5.37;;
16093;SDS011;8151;47.824;12.092;2022-08-07T00:31:00;8.37;;;6.07;;
16093;SDS011;8151;47.824;12.092;2022-08-07T00:33:32;9.03;;;6.63;;
16093;SDS011;8151;47.824;12.092;2022-08-07T00:36:03;8.77;;;6.33;;
16093;SDS011;8151;47.824;12.092;2022-08-07T00:38:33;11.73;;;6.90;;
16093;SDS011;8151;47.824;12.092;2022-08-07T00:41:05;9.03;;;6.60;;
16093;SDS011;8151;47.824;12.092;2022-08-07T00:43:40;8.57;;;6.97;;
16093;SDS011;8151;47.824;12.092;2022-08-07T00:46:29;6.97;;;5.60;;
16093;SDS011;8151;47.824;12.092;2022-08-07T00:49:00;6.33;;;5.10;;
16093;SDS011;8151;47.824;12.092;2022-08-07T00:51:30;9.83;;;5.00;;
16093;SDS011;8151;47.824;12.092;2022-08-07T00:54:19;6.10;;;5.00;;
16093;SDS011;8151;47.824;12.092;2022-08-07T00:56:49;5.73;;;4.43;;
16093;SDS011;8151;47.824;12.092;2022-08-07T00:59:19;6.03;;;4.77;;
16093;SDS011;8151;47.824;12.092;2022-08-07T01:02:02;5.90;;;4.43;;
16093;SDS011;8151;47.824;12.092;2022-08-07T01:04:35;5.17;;;4.63;;
16093;SDS011;8151;47.824;12.092;2022-08-07T01:07:10;5.83;;;4.40;;
16093;SDS011;8151;47.824;12.092;2022-08-07T01:09:39;4.40;;;4.00;;
16093;SDS011;8151;47.824;12.092;2022-08-07T01:12:29;5.67;;;4.57;;
16093;SDS011;8151;47.824;12.092;2022-08-07T01:14:58;4.60;;;4.00;;
16093;SDS011;8151;47.824;12.092;2022-08-07T01:17:31;6.53;;;4.17;;
16093;SDS011;8151;47.824;12.092;2022-08-07T01:20:03;5.63;;;4.10;;
16093;SDS011;8151;47.824;12.092;2022-08-07T01:22:36;6.47;;;4.20;;
16093;SDS011;8151;47.824;12.092;2022-08-07T01:25:20;4.70;;;4.20;;
16093;SDS011;8151;47.824;12.092;2022-08-07T01:28:09;3.90;;;3.50;;
16093;SDS011;8151;47.824;12.092;2022-08-07T01:30:38;6.70;;;3.90;;
16093;SDS011;8151;47.824;12.092;2022-08-07T01:33:08;5.10;;;3.97;;
16093;SDS011;8151;47.824;12.092;2022-08-07T01:35:36;5.43;;;3.77;;
16093;SDS011;8151;47.824;12.092;2022-08-07T01:38:21;4.87;;;3.43;;
16093;SDS011;8151;47.824;12.092;2022-08-07T01:40:56;4.67;;;3.70;;
16093;SDS011;8151;47.824;12.092;2022-08-07T01:43:26;5.43;;;3.37;;
16093;SDS011;8151;47.824;12.092;2022-08-07T01:46:04;4.50;;;3.80;;
16093;SDS011;8151;47.824;12.092;2022-08-07T01:48:39;6.90;;;4.50;;
16093;SDS011;8151;47.824;12.092;2022-08-07T01:51:13;7.43;;;4.37;;
16093;SDS011;8151;47.824;12.092;2022-08-07T01:54:08;4.43;;;3.83;;
16093;SDS011;8151;47.824;12.092;2022-08-07T01:57:00;5.57;;;4.10;;
16093;SDS011;8151;47.824;12.092;2022-08-07T01:59:35;7.23;;;3.67;;
16093;SDS011;8151;47.824;12.092;2022-08-07T02:02:12;7.93;;;3.93;;
16093;SDS011;8151;47.824;12.092;2022-08-07T02:05:07;3.97;;;3.57;;
16093;SDS011;8151;47.824;12.092;2022-08-07T02:08:01;3.80;;;3.50;;
16093;SDS011;8151;47.824;12.092;2022-08-07T02:10:51;4.07;;;3.37;;
16093;SDS011;8151;47.824;12.092;2022-08-07T02:13:28;5.67;;;3.57;;
16093;SDS011;8151;47.824;12.092;2022-08-07T02:16:19;4.37;;;3.97;;
16093;SDS011;8151;47.824;12.092;2022-08-07T02:18:59;4.90;;;3.13;;
16093;SDS011;8151;47.824;12.092;2022-08-07T02:21:50;3.57;;;3.10;;
16093;SDS011;8151;47.824;12.092;2022-08-07T02:24:24;3.33;;;2.87;;
16093;SDS011;8151;47.824;12.092;2022-08-07T02:26:57;5.47;;;3.13;;
16093;SDS011;8151;47.824;12.092;2022-08-07T02:29:29;4.00;;;3.70;;
16093;SDS011;8151;47.824;12.092;2022-08-07T02:32:14;4.63;;;3.70;;
16093;SDS011;8151;47.824;12.092;2022-08-07T02:34:49;4.73;;;3.50;;
16093;SDS011;8151;47.824;12.092;2022-08-07T02:37:19;3.23;;;2.97;;
16093;SDS011;8151;47.824;12.092;2022-08-07T02:39:51;5.07;;;3.30;;
16093;SDS011;8151;47.824;12.092;2022-08-07T02:42:44;4.73;;;3.10;;
16093;SDS011;8151;47.824;12.092;2022-08-07T02:45:14;4.93;;;3.00;;
16093;SDS011;8151;47.824;12.092;2022-08-07T02:48:04;3.87;;;3.50;;
16093;SDS011;8151;47.824;12.092;2022-08-07T02:50:38;5.83;;;3.30;;
16093;SDS011;8151;47.824;12.092;2022-08-07T02:53:10;4.10;;;3.20;;
16093;SDS011;8151;47.824;12.092;2022-08-07T02:55:43;4.20;;;2.90;;
16093;SDS011;8151;47.824;12.092;2022-08-07T02:58:32;2.97;;;2.53;;
16093;SDS011;8151;47.824;12.092;2022-08-07T03:01:05;3.20;;;2.90;;
16093;SDS011;8151;47.824;12.092;2022-08-07T03:03:56;6.70;;;2.97;;
16093;SDS011;8151;47.824;12.092;2022-08-07T03:06:33;3.33;;;2.73;;
16093;SDS011;8151;47.824;12.092;2022-08-07T03:09:04;5.23;;;2.67;;
16093;SDS011;8151;47.824;12.092;2022-08-07T03:11:37;2.70;;;2.50;;
16093;SDS011;8151;47.824;12.092;2022-08-07T03:14:25;2.50;;;2.30;;
16093;SDS011;8151;47.824;12.092;2022-08-07T03:16:54;2.83;;;2.40;;
16093;SDS011;8151;47.824;12.092;2022-08-07T03:19:23;6.00;;;2.80;;
16093;SDS011;8151;47.824;12.092;2022-08-07T03:21:55;2.57;;;2.20;;
16093;SDS011;8151;47.824;12.092;2022-08-07T03:24:24;3.30;;;2.90;;
16093;SDS011;8151;47.824;12.092;2022-08-07T03:26:54;2.63;;;2.43;;
16093;SDS011;8151;47.824;12.092;2022-08-07T03:29:31;3.43;;;2.50;;
16093;SDS011;8151;47.824;12.092;2022-08-07T03:32:04;4.67;;;2.47;;
16093;SDS011;8151;47.824;12.092;2022-08-07T03:34:39;4.97;;;2.50;;
16093;SDS011;8151;47.824;12.092;2022-08-07T03:37:27;3.20;;;2.90;;
16093;SDS011;8151;47.824;12.092;2022-08-07T03:39:58;2.67;;;2.47;;
16093;SDS011;8151;47.824;12.092;2022-08-07T03:42:42;3.10;;;2.80;;
16093;SDS011;8151;47.824;12.092;2022-08-07T03:45:12;8.53;;;2.90;;
16093;SDS011;8151;47.824;12.092;2022-08-07T03:47:56;2.70;;;2.50;;
16093;SDS011;8151;47.824;12.092;2022-08-07T03:50:25;2.80;;;2.60;;
16093;SDS011;8151;47.824;12.092;2022-08-07T03:52:56;3.07;;;2.77;;
16093;SDS011;8151;47.824;12.092;2022-08-07T03:55:26;3.87;;;2.80;;
16093;SDS011;8151;47.824;12.092;2022-08-07T03:58:16;2.90;;;2.70;;
16093;SDS011;8151;47.824;12.092;2022-08-07T04:01:06;5.90;;;2.73;;
16093;SDS011;8151;47.824;12.092;2022-08-07T04:03:39;4.97;;;2.70;;
16093;SDS011;8151;47.824;12.092;2022-08-07T04:06:21;5.67;;;3.83;;
16093;SDS011;8151;47.824;12.092;2022-08-07T04:09:04;3.63;;;3.33;;
16093;SDS011;8151;47.824;12.092;2022-08-07T04:11:41;4.03;;;3.10;;
16093;SDS011;8151;47.824;12.092;2022-08-07T04:14:31;3.90;;;2.80;;
16093;SDS011;8151;47.824;12.092;2022-08-07T04:17:11;2.70;;;2.50;;
16093;SDS011;8151;47.824;12.092;2022-08-07T04:19:47;4.00;;;3.37;;
16093;SDS011;8151;47.824;12.092;2022-08-07T04:22:21;4.87;;;3.80;;
16093;SDS011;8151;47.824;12.092;2022-08-07T04:24:55;5.17;;;3.43;;
16093;SDS011;8151;47.824;12.092;2022-08-07T04:27:27;4.87;;;3.80;;
16093;SDS011;8151;47.824;12.092;2022-08-07T04:30:05;5.23;;;3.60;;
16093;SDS011;8151;47.824;12.092;2022-08-07T04:32:55;3.57;;;3.20;;
16093;SDS011;8151;47.824;12.092;2022-08-07T04:35:24;3.93;;;3.53;;
16093;SDS011;8151;47.824;12.092;2022-08-07T04:38:03;4.93;;;3.90;;
16093;SDS011;8151;47.824;12.092;2022-08-07T04:40:33;3.40;;;3.10;;
16093;SDS011;8151;47.824;12.092;2022-08-07T04:43:20;6.20;;;4.20;;
16093;SDS011;8151;47.824;12.092;2022-08-07T04:46:14;9.07;;;4.90;;
16093;SDS011;8151;47.824;12.092;2022-08-07T04:49:02;4.20;;;3.50;;
16093;SDS011;8151;47.824;12.092;2022-08-07T04:51:52;4.67;;;3.07;;
16093;SDS011;8151;47.824;12.092;2022-08-07T04:54:30;4.07;;;3.30;;
16093;SDS011;8151;47.824;12.092;2022-08-07T04:57:05;5.63;;;3.60;;
16093;SDS011;8151;47.824;12.092;2022-08-07T05:00:04;3.63;;;3.13;;
16093;SDS011;8151;47.824;12.092;2022-08-07T05:02:51;4.30;;;3.23;;
16093;SDS011;8151;47.824;12.092;2022-08-07T05:05:25;3.60;;;2.80;;
16093;SDS011;8151;47.824;12.092;2022-08-07T05:08:19;3.40;;;3.10;;
16093;SDS011;8151;47.824;12.092;2022-08-07T05:11:12;3.40;;;2.70;;
16093;SDS011;8151;47.824;12.092;2022-08-07T05:13:48;4.80;;;3.70;;
16093;SDS011;8151;47.824;12.092;2022-08-07T05:16:40;7.23;;;3.13;;
16093;SDS011;8151;47.824;12.092;2022-08-07T05:19:19;4.47;;;2.97;;
16093;SDS011;8151;47.824;12.092;2022-08-07T05:22:12;6.63;;;2.77;;
16093;SDS011;8151;47.824;12.092;2022-08-07T05:24:53;3.30;;;3.00;;
16093;SDS011;8151;47.824;12.092;2022-08-07T05:27:26;4.40;;;3.00;;
16093;SDS011;8151;47.824;12.092;2022-08-07T05:30:16;3.33;;;2.90;;
16093;SDS011;8151;47.824;12.092;2022-08-07T05:32:58;3.03;;;2.60;;
16093;SDS011;8151;47.824;12.092;2022-08-07T05:35:30;6.17;;;4.20;;
16093;SDS011;8151;47.824;12.092;2022-08-07T05:38:09;5.63;;;4.50;;
16093;SDS011;8151;47.824;12.092;2022-08-07T05:40:59;4.37;;;3.57;;
16093;SDS011;8151;47.824;12.092;2022-08-07T05:43:40;7.47;;;5.97;;
16093;SDS011;8151;47.824;12.092;2022-08-07T05:46:30;5.47;;;3.10;;
16093;SDS011;8151;47.824;12.092;2022-08-07T05:49:01;5.27;;;3.77;;
16093;SDS011;8151;47.824;12.092;2022-08-07T05:51:38;6.20;;;4.03;;
16093;SDS011;8151;47.824;12.092;2022-08-07T05:54:10;6.33;;;3.87;;
16093;SDS011;8151;47.824;12.092;2022-08-07T05:56:59;6.17;;;5.47;;
16093;SDS011;8151;47.824;12.092;2022-08-07T05:59:29;3.90;;;3.47;;
16093;SDS011;8151;47.824;12.092;2022-08-07T06:02:21;4.30;;;3.77;;
16093;SDS011;8151;47.824;12.092;2022-08-07T06:04:56;3.37;;;3.07;;
16093;SDS011;8151;47.824;12.092;2022-08-07T06:07:29;3.80;;;3.13;;
16093;SDS011;8151;47.824;12.092;2022-08-07T06:10:21;4.03;;;3.30;;
16093;SDS011;8151;47.824;12.092;2022-08-07T06:12:50;5.47;;;4.70;;
16093;SDS011;8151;47.824;12.092;2022-08-07T06:15:20;5.90;;;4.50;;
16093;SDS011;8151;47.824;12.092;2022-08-07T06:18:08;5.13;;;3.47;;
16093;SDS011;8151;47.824;12.092;2022-08-07T06:20:40;4.07;;;2.90;;
16093;SDS011;8151;47.824;12.092;2022-08-07T06:23:28;3.30;;;3.00;;
16093;SDS011;8151;47.824;12.092;2022-08-07T06:26:19;2.73;;;2.53;;
16093;SDS011;8151;47.824;12.092;2022-08-07T06:28:54;3.67;;;2.73;;
16093;SDS011;8151;47.824;12.092;2022-08-07T06:31:27;4.87;;;2.90;;
16093;SDS011;8151;47.824;12.092;2022-08-07T06:34:15;6.90;;;3.20;;
16093;SDS011;8151;47.824;12.092;2022-08-07T06:36:46;6.53;;;3.33;;
16093;SDS011;8151;47.824;12.092;2022-08-07T06:39:18;4.73;;;3.27;;
16093;SDS011;8151;47.824;12.092;2022-08-07T06:42:09;4.20;;;3.63;;
16093;SDS011;8151;47.824;12.092;2022-08-07T06:44:44;4.53;;;3.53;;
16093;SDS011;8151;47.824;12.092;2022-08-07T06:47:17;3.97;;;3.20;;
16093;SDS011;8151;47.824;12.092;2022-08-07T06:49:47;3.70;;;3.40;;
16093;SDS011;8151;47.824;12.092;2022-08-07T06:52:18;5.50;;;4.77;;
16093;SDS011;8151;47.824;12.092;2022-08-07T06:55:05;3.40;;;3.10;;
16093;SDS011;8151;47.824;12.092;2022-08-07T06:58:00;6.60;;;3.30;;
16093;SDS011;8151;47.824;12.092;2022-08-07T07:00:31;5.23;;;3.27;;
16093;SDS011;8151;47.824;12.092;2022-08-07T07:03:04;4.77;;;3.67;;
16093;SDS011;8151;47.824;12.092;2022-08-07T07:05:37;4.07;;;3.30;;
16093;SDS011;8151;47.824;12.092;2022-08-07T07:08:26;3.70;;;3.13;;
16093;SDS011;8151;47.824;12.092;2022-08-07T07:10:59;3.93;;;3.03;;
16093;SDS011;8151;47.824;12.092;2022-08-07T07:13:49;4.17;;;3.03;;
16093;SDS011;8151;47.824;12.092;2022-08-07T07:16:28;3.63;;;3.10;;
16093;SDS011;8151;47.824;12.092;2022-08-07T07:19:11;3.53;;;3.03;;
16093;SDS011;8151;47.824;12.092;2022-08-07T07:22:03;4.10;;;3.30;;
16093;SDS011;8151;47.824;12.092;2022-08-07T07:24:53;3.67;;;3.37;;
16093;SDS011;8151;47.824;12.092;2022-08-07T07:27:43;3.00;;;2.70;;
16093;SDS011;8151;47.824;12.092;2022-08-07T07:30:31;3.17;;;2.80;;
16093;SDS011;8151;47.824;12.092;2022-08-07T07:33:06;3.33;;;3.03;;
16093;SDS011;8151;47.824;12.092;2022-08-07T07:35:38;3.43;;;3.03;;
16093;SDS011;8151;47.824;12.092;2022-08-07T07:38:29;3.63;;;3.10;;
16093;SDS011;8151;47.824;12.092;2022-08-07T07:41:02;7.23;;;3.20;;
16093;SDS011;8151;47.824;12.092;2022-08-07T07:43:35;3.43;;;3.13;;
16093;SDS011;8151;47.824;12.092;2022-08-07T07:46:29;4.20;;;3.70;;
16093;SDS011;8151;47.824;12.092;2022-08-07T07:49:19;3.87;;;3.43;;
16093;SDS011;8151;47.824;12.092;2022-08-07T07:52:10;3.30;;;3.10;;
16093;SDS011;8151;47.824;12.092;2022-08-07T07:54:42;4.53;;;3.27;;
16093;SDS011;8151;47.824;12.092;2022-08-07T07:57:17;5.47;;;3.67;;
16093;SDS011;8151;47.824;12.092;2022-08-07T08:00:08;4.20;;;3.80;;
16093;SDS011;8151;47.824;12.092;2022-08-07T08:03:00;3.70;;;3.40;;
16093;SDS011;8151;47.824;12.092;2022-08-07T08:05:38;5.20;;;3.40;;
16093;SDS011;8151;47.824;12.092;2022-08-07T08:08:29;4.30;;;3.90;;
16093;SDS011;8151;47.824;12.092;2022-08-07T08:11:06;4.50;;;3.70;;
16093;SDS011;8151;47.824;12.092;2022-08-07T08:13:44;3.50;;;3.30;;
16093;SDS011;8151;47.824;12.092;2022-08-07T08:16:23;3.87;;;3.47;;
16093;SDS011;8151;47.824;12.092;2022-08-07T08:18:58;3.67;;;3.33;;
16093;SDS011;8151;47.824;12.092;2022-08-07T08:21:49;4.30;;;3.50;;
16093;SDS011;8151;47.824;12.092;2022-08-07T08:24:37;3.73;;;3.43;;
16093;SDS011;8151;47.824;12.092;2022-08-07T08:27:45;4.10;;;3.80;;
16093;SDS011;8151;47.824;12.092;2022-08-07T08:30:25;3.90;;;3.60;;
16093;SDS011;8151;47.824;12.092;2022-08-07T08:32:59;3.90;;;3.60;;
16093;SDS011;8151;47.824;12.092;2022-08-07T08:35:32;4.33;;;3.90;;
16093;SDS011;8151;47.824;12.092;2022-08-07T08:38:16;3.83;;;3.43;;
16093;SDS011;8151;47.824;12.092;2022-08-07T08:40:56;3.70;;;3.40;;
16093;SDS011;8151;47.824;12.092;2022-08-07T08:43:32;7.00;;;6.30;;
16093;SDS011;8151;47.824;12.092;2022-08-07T08:46:10;7.37;;;6.60;;
16093;SDS011;8151;47.824;12.092;2022-08-07T08:48:50;5.00;;;3.80;;
16093;SDS011;8151;47.824;12.092;2022-08-07T08:51:27;8.60;;;4.50;;
16093;SDS011;8151;47.824;12.092;2022-08-07T08:54:20;4.13;;;3.80;;
16093;SDS011;8151;47.824;12.092;2022-08-07T08:56:53;6.27;;;4.63;;
16093;SDS011;8151;47.824;12.092;2022-08-07T08:59:26;5.97;;;5.47;;
16093;SDS011;8151;47.824;12.092;2022-08-07T09:02:16;6.17;;;3.93;;
16093;SDS011;8151;47.824;12.092;2022-08-07T09:05:09;4.00;;;3.60;;
16093;SDS011;8151;47.824;12.092;2022-08-07T09:08:18;4.13;;;3.73;;
16093;SDS011;8151;47.824;12.092;2022-08-07T09:11:08;7.83;;;3.73;;
16093;SDS011;8151;47.824;12.092;2022-08-07T09:14:04;6.27;;;3.50;;
16093;SDS011;8151;47.824;12.092;2022-08-07T09:16:53;4.87;;;3.70;;
16093;SDS011;8151;47.824;12.092;2022-08-07T09:19:44;4.30;;;3.70;;
16093;SDS011;8151;47.824;12.092;2022-08-07T09:22:27;6.50;;;3.77;;
16093;SDS011;8151;47.824;12.092;2022-08-07T09:25:29;6.43;;;4.50;;
16093;SDS011;8151;47.824;12.092;2022-08-07T09:28:05;4.67;;;3.20;;
16093;SDS011;8151;47.824;12.092;2022-08-07T09:30:55;4.33;;;3.93;;
16093;SDS011;8151;47.824;12.092;2022-08-07T09:33:35;12.30;;;6.17;;
16093;SDS011;8151;47.824;12.092;2022-08-07T09:36:25;23.20;;;9.53;;
16093;SDS011;8151;47.824;12.092;2022-08-07T09:39:04;11.77;;;4.97;;
16093;SDS011;8151;47.824;12.092;2022-08-07T09:45:02;5.90;;;4.77;;
16093;SDS011;8151;47.824;12.092;2022-08-07T09:48:01;4.63;;;3.40;;
16093;SDS011;8151;47.824;12.092;2022-08-07T09:50:45;9.33;;;6.03;;
16093;SDS011;8151;47.824;12.092;2022-08-07T09:53:21;18.90;;;11.83;;
16093;SDS011;8151;47.824;12.092;2022-08-07T09:56:15;6.60;;;3.70;;
16093;SDS011;8151;47.824;12.092;2022-08-07T09:59:20;3.33;;;3.10;;
16093;SDS011;8151;47.824;12.092;2022-08-07T10:02:33;3.10;;;2.80;;
16093;SDS011;8151;47.824;12.092;2022-08-07T10:05:25;3.03;;;2.83;;
16093;SDS011;8151;47.824;12.092;2022-08-07T10:08:42;3.17;;;2.83;;
16093;SDS011;8151;47.824;12.092;2022-08-07T10:11:29;3.20;;;2.90;;
16093;SDS011;8151;47.824;12.092;2022-08-07T10:14:38;5.57;;;3.83;;
16093;SDS011;8151;47.824;12.092;2022-08-07T10:17:33;2.97;;;2.50;;
16093;SDS011;8151;47.824;12.092;2022-08-07T10:20:31;3.40;;;2.40;;
16093;SDS011;8151;47.824;12.092;2022-08-07T10:23:19;4.77;;;2.70;;
16093;SDS011;8151;47.824;12.092;2022-08-07T10:26:29;4.23;;;2.70;;
16093;SDS011;8151;47.824;12.092;2022-08-07T10:32:37;2.70;;;2.50;;
16093;SDS011;8151;47.824;12.092;2022-08-07T10:35:28;2.23;;;2.13;;
16093;SDS011;8151;47.824;12.092;2022-08-07T10:38:26;4.23;;;2.00;;
16093;SDS011;8151;47.824;12.092;2022-08-07T10:41:17;2.67;;;2.10;;
16093;SDS011;8151;47.824;12.092;2022-08-07T10:44:15;2.43;;;2.23;;
16093;SDS011;8151;47.824;12.092;2022-08-07T10:47:09;2.20;;;2.00;;
16093;SDS011;8151;47.824;12.092;2022-08-07T10:50:08;3.00;;;2.47;;
16093;SDS011;8151;47.824;12.092;2022-08-07T10:52:45;2.50;;;2.30;;
16093;SDS011;8151;47.824;12.092;2022-08-07T10:55:20;2.30;;;1.97;;
16093;SDS011;8151;47.824;12.092;2022-08-07T10:58:08;2.63;;;2.43;;
16093;SDS011;8151;47.824;12.092;2022-08-07T11:01:02;2.23;;;1.97;;
16093;SDS011;8151;47.824;12.092;2022-08-07T11:03:54;2.63;;;2.43;;
16093;SDS011;8151;47.824;12.092;2022-08-07T11:06:48;3.23;;;2.37;;
16093;SDS011;8151;47.824;12.092;2022-08-07T11:09:23;1.90;;;1.80;;
16093;SDS011;8151;47.824;12.092;2022-08-07T11:12:18;1.90;;;1.80;;
16093;SDS011;8151;47.824;12.092;2022-08-07T11:15:00;2.10;;;1.90;;
16093;SDS011;8151;47.824;12.092;2022-08-07T11:17:42;4.03;;;2.20;;
16093;SDS011;8151;47.824;12.092;2022-08-07T11:20:22;2.10;;;2.00;;
16093;SDS011;8151;47.824;12.092;2022-08-07T11:22:58;4.30;;;2.20;;
16093;SDS011;8151;47.824;12.092;2022-08-07T11:25:35;2.33;;;2.00;;
16093;SDS011;8151;47.824;12.092;2022-08-07T11:28:17;7.87;;;2.03;;
16093;SDS011;8151;47.824;12.092;2022-08-07T11:30:53;3.37;;;1.80;;
16093;SDS011;8151;47.824;12.092;2022-08-07T11:33:27;2.10;;;2.00;;
16093;SDS011;8151;47.824;12.092;2022-08-07T11:36:32;4.00;;;3.27;;
16093;SDS011;8151;47.824;12.092;2022-08-07T11:39:11;1.93;;;1.80;;
16093;SDS011;8151;47.824;12.092;2022-08-07T11:41:47;2.87;;;2.40;;
16093;SDS011;8151;47.824;12.092;2022-08-07T11:44:34;5.83;;;2.10;;
16093;SDS011;8151;47.824;12.092;2022-08-07T11:47:35;2.17;;;1.97;;
16093;SDS011;8151;47.824;12.092;2022-08-07T11:50:36;3.30;;;2.60;;
16093;SDS011;8151;47.824;12.092;2022-08-07T11:53:33;3.67;;;2.23;;
16093;SDS011;8151;47.824;12.092;2022-08-07T11:56:32;2.67;;;2.23;;
16093;SDS011;8151;47.824;12.092;2022-08-07T11:59:14;2.27;;;1.97;;
16093;SDS011;8151;47.824;12.092;2022-08-07T12:02:16;1.97;;;1.87;;
16093;SDS011;8151;47.824;12.092;2022-08-07T12:05:01;3.10;;;1.90;;
16093;SDS011;8151;47.824;12.092;2022-08-07T12:07:43;3.37;;;1.90;;
16093;SDS011;8151;47.824;12.092;2022-08-07T12:10:30;2.57;;;2.00;;
16093;SDS011;8151;47.824;12.092;2022-08-07T12:13:10;3.10;;;1.80;;
16093;SDS011;8151;47.824;12.092;2022-08-07T12:16:01;2.83;;;2.57;;
16093;SDS011;8151;47.824;12.092;2022-08-07T12:18:37;3.43;;;2.07;;
16093;SDS011;8151;47.824;12.092;2022-08-07T12:21:19;2.50;;;2.30;;
16093;SDS011;8151;47.824;12.092;2022-08-07T12:24:16;3.43;;;2.00;;
16093;SDS011;8151;47.824;12.092;2022-08-07T12:27:09;2.77;;;2.20;;
16093;SDS011;8151;47.824;12.092;2022-08-07T12:29:45;2.53;;;2.30;;
16093;SDS011;8151;47.824;12.092;2022-08-07T12:32:19;1.80;;;1.70;;
16093;SDS011;8151;47.824;12.092;2022-08-07T12:34:55;1.90;;;1.80;;
16093;SDS011;8151;47.824;12.092;2022-08-07T12:37:26;3.10;;;2.60;;
16093;SDS011;8151;47.824;12.092;2022-08-07T12:40:18;4.63;;;3.00;;
16093;SDS011;8151;47.824;12.092;2022-08-07T12:43:10;2.20;;;2.10;;
16093;SDS011;8151;47.824;12.092;2022-08-07T12:46:04;2.50;;;2.30;;
16093;SDS011;8151;47.824;12.092;2022-08-07T12:48:54;3.03;;;2.30;;
16093;SDS011;8151;47.824;12.092;2022-08-07T12:51:50;2.95;;;2.00;;
16093;SDS011;8151;47.824;12.092;2022-08-07T12:54:39;2.20;;;2.00;;
16093;SDS011;8151;47.824;12.092;2022-08-07T12:57:24;6.43;;;2.60;;
16093;SDS011;8151;47.824;12.092;2022-08-07T13:00:17;3.17;;;2.00;;
16093;SDS011;8151;47.824;12.092;2022-08-07T13:06:28;2.87;;;2.13;;
16093;SDS011;8151;47.824;12.092;2022-08-07T13:09:33;4.50;;;2.40;;
16093;SDS011;8151;47.824;12.092;2022-08-07T13:12:42;3.20;;;2.47;;
16093;SDS011;8151;47.824;12.092;2022-08-07T13:15:25;3.83;;;2.87;;
16093;SDS011;8151;47.824;12.092;2022-08-07T13:18:10;2.43;;;2.23;;
16093;SDS011;8151;47.824;12.092;2022-08-07T13:20:59;2.17;;;2.03;;
16093;SDS011;8151;47.824;12.092;2022-08-07T13:23:36;2.23;;;2.00;;
16093;SDS011;8151;47.824;12.092;2022-08-07T13:26:31;6.43;;;2.60;;
16093;SDS011;8151;47.824;12.092;2022-08-07T13:29:13;2.30;;;2.10;;
16093;SDS011;8151;47.824;12.092;2022-08-07T13:31:47;2.10;;;1.90;;
16093;SDS011;8151;47.824;12.092;2022-08-07T13:34:27;2.30;;;2.10;;
16093;SDS011;8151;47.824;12.092;2022-08-07T13:37:04;3.77;;;1.97;;
16093;SDS011;8151;47.824;12.092;2022-08-07T13:39:49;2.63;;;2.10;;
16093;SDS011;8151;47.824;12.092;2022-08-07T13:42:50;3.40;;;2.60;;
16093;SDS011;8151;47.824;12.092;2022-08-07T13:45:21;1.90;;;1.80;;
16093;SDS011;8151;47.824;12.092;2022-08-07T13:48:14;2.83;;;2.30;;
16093;SDS011;8151;47.824;12.092;2022-08-07T13:51:00;5.17;;;4.53;;
16093;SDS011;8151;47.824;12.092;2022-08-07T13:53:50;7.03;;;6.33;;
16093;SDS011;8151;47.824;12.092;2022-08-07T13:56:28;2.30;;;2.10;;
16093;SDS011;8151;47.824;12.092;2022-08-07T13:59:08;4.83;;;4.43;;
16093;SDS011;8151;47.824;12.092;2022-08-07T14:01:43;12.93;;;11.67;;
16093;SDS011;8151;47.824;12.092;2022-08-07T14:04:32;3.13;;;2.60;;
16093;SDS011;8151;47.824;12.092;2022-08-07T14:07:17;4.13;;;3.47;;
16093;SDS011;8151;47.824;12.092;2022-08-07T14:09:52;2.50;;;2.30;;
16093;SDS011;8151;47.824;12.092;2022-08-07T14:12:44;5.60;;;4.10;;
16093;SDS011;8151;47.824;12.092;2022-08-07T14:15:28;2.67;;;2.47;;
16093;SDS011;8151;47.824;12.092;2022-08-07T14:18:03;3.33;;;2.60;;
16093;SDS011;8151;47.824;12.092;2022-08-07T14:20:58;2.70;;;2.40;;
16093;SDS011;8151;47.824;12.092;2022-08-07T14:23:47;2.43;;;2.20;;
16093;SDS011;8151;47.824;12.092;2022-08-07T14:26:29;3.83;;;2.27;;
16093;SDS011;8151;47.824;12.092;2022-08-07T14:29:04;2.13;;;1.93;;
16093;SDS011;8151;47.824;12.092;2022-08-07T14:31:56;2.30;;;2.10;;
16093;SDS011;8151;47.824;12.092;2022-08-07T14:34:29;2.73;;;2.40;;
16093;SDS011;8151;47.824;12.092;2022-08-07T14:37:15;2.77;;;2.50;;
16093;SDS011;8151;47.824;12.092;2022-08-07T14:39:45;2.27;;;2.10;;
16093;SDS011;8151;47.824;12.092;2022-08-07T14:42:35;6.53;;;5.83;;
16093;SDS011;8151;47.824;12.092;2022-08-07T14:45:25;6.40;;;5.70;;
16093;SDS011;8151;47.824;12.092;2022-08-07T14:48:15;2.80;;;2.37;;
16093;SDS011;8151;47.824;12.092;2022-08-07T14:50:47;6.60;;;6.00;;
16093;SDS011;8151;47.824;12.092;2022-08-07T14:53:21;6.20;;;3.58;;
16093;SDS011;8151;47.824;12.092;2022-08-07T14:56:13;2.43;;;2.23;;
16093;SDS011;8151;47.824;12.092;2022-08-07T14:59:01;2.53;;;2.30;;
16093;SDS011;8151;47.824;12.092;2022-08-07T15:01:53;2.55;;;2.13;;
16093;SDS011;8151;47.824;12.092;2022-08-07T15:04:24;4.55;;;3.53;;
16093;SDS011;8151;47.824;12.092;2022-08-07T15:06:54;3.33;;;3.03;;
16093;SDS011;8151;47.824;12.092;2022-08-07T15:09:28;3.37;;;2.37;;
16093;SDS011;8151;47.824;12.092;2022-08-07T15:12:19;3.78;;;3.33;;
16093;SDS011;8151;47.824;12.092;2022-08-07T15:15:11;2.17;;;2.03;;
16093;SDS011;8151;47.824;12.092;2022-08-07T15:18:06;2.70;;;2.00;;
16093;SDS011;8151;47.824;12.092;2022-08-07T15:20:58;2.67;;;2.30;;
16093;SDS011;8151;47.824;12.092;2022-08-07T15:23:36;3.63;;;2.30;;
16093;SDS011;8151;47.824;12.092;2022-08-07T15:26:32;2.50;;;2.30;;
16093;SDS011;8151;47.824;12.092;2022-08-07T15:29:05;2.83;;;2.30;;
16093;SDS011;8151;47.824;12.092;2022-08-07T15:31:58;2.42;;;2.22;;
16093;SDS011;8151;47.824;12.092;2022-08-07T15:34:34;2.37;;;2.17;;
16093;SDS011;8151;47.824;12.092;2022-08-07T15:37:19;2.50;;;2.30;;
16093;SDS011;8151;47.824;12.092;2022-08-07T15:39:54;2.60;;;2.40;;
16093;SDS011;8151;47.824;12.092;2022-08-07T15:42:45;3.50;;;2.13;;
16093;SDS011;8151;47.824;12.092;2022-08-07T15:45:28;4.33;;;2.07;;
16093;SDS011;8151;47.824;12.092;2022-08-07T15:48:21;2.43;;;2.23;;
16093;SDS011;8151;47.824;12.092;2022-08-07T15:51:13;2.53;;;2.20;;
16093;SDS011;8151;47.824;12.092;2022-08-07T15:53:45;3.33;;;2.43;;
16093;SDS011;8151;47.824;12.092;2022-08-07T15:56:20;2.60;;;2.03;;
16093;SDS011;8151;47.824;12.092;2022-08-07T15:59:02;3.00;;;2.30;;
16093;SDS011;8151;47.824;12.092;2022-08-07T16:01:43;2.67;;;2.47;;
16093;SDS011;8151;47.824;12.092;2022-08-07T16:04:29;4.73;;;2.70;;
16093;SDS011;8151;47.824;12.092;2022-08-07T16:07:03;2.97;;;2.20;;
16093;SDS011;8151;47.824;12.092;2022-08-07T16:09:56;4.50;;;2.50;;
16093;SDS011;8151;47.824;12.092;2022-08-07T16:12:39;2.73;;;2.53;;
16093;SDS011;8151;47.824;12.092;2022-08-07T16:15:36;2.77;;;2.50;;
16093;SDS011;8151;47.824;12.092;2022-08-07T16:18:28;2.70;;;2.33;;
16093;SDS011;8151;47.824;12.092;2022-08-07T16:21:19;3.30;;;2.63;;
16093;SDS011;8151;47.824;12.092;2022-08-07T16:24:22;2.37;;;2.23;;
16093;SDS011;8151;47.824;12.092;2022-08-07T16:27:08;2.30;;;2.10;;
16093;SDS011;8151;47.824;12.092;2022-08-07T16:29:52;3.53;;;3.23;;
16093;SDS011;8151;47.824;12.092;2022-08-07T16:32:56;3.83;;;2.53;;